Time;durP1;ratioP1;P1;durP2;ratioP2;P2;SDS_P1;SDS_P2;PMS_P1;PMS_P2;Temp;Humidity;BMP_temperature;BMP_pressure;BME280_temperature;BME280_humidity;BME280_pressure;Samples;Min_cycle;Max_cycle;Signal;HPM_P1;HPM_P2
2022/07/26 00:01:21;;;;;;;6.60;2.72;;;;;;;;;;4930031;28;20445;-63
2022/07/26 00:03:48;;;;;;;8.13;3.13;;;;;;;;;;4930323;28;20396;-64
2022/07/26 00:06:14;;;;;;;5.70;3.38;;;;;;;;;;4929898;28;20377;-65
2022/07/26 00:08:39;;;;;;;7.20;2.70;;;;;;;;;;4929078;28;20053;-63
2022/07/26 00:11:05;;;;;;;9.48;3.50;;;;;;;;;;4928683;28;20433;-63
2022/07/26 00:13:31;;;;;;;9.48;3.15;;;;;;;;;;4928563;28;20544;-62
2022/07/26 00:15:56;;;;;;;6.47;2.33;;;;;;;;;;4928375;28;20329;-63
2022/07/26 00:18:22;;;;;;;7.18;2.70;;;;;;;;;;4928117;28;20397;-63
2022/07/26 00:20:48;;;;;;;8.48;2.53;;;;;;;;;;4927960;28;20437;-63
2022/07/26 00:23:14;;;;;;;8.07;3.15;;;;;;;;;;4928752;28;20476;-63
2022/07/26 00:25:39;;;;;;;4.45;2.60;;;;;;;;;;4928832;28;20385;-64
2022/07/26 00:28:05;;;;;;;4.53;2.58;;;;;;;;;;4928401;28;20057;-63
2022/07/26 00:30:30;;;;;;;6.25;2.40;;;;;;;;;;4928208;28;20097;-62
2022/07/26 00:32:56;;;;;;;11.38;2.72;;;;;;;;;;4928084;28;20437;-64
2022/07/26 00:35:21;;;;;;;4.07;2.13;;;;;;;;;;4928046;28;20400;-62
2022/07/26 00:37:47;;;;;;;5.47;2.47;;;;;;;;;;4931970;28;20341;-64
2022/07/26 00:40:13;;;;;;;5.28;2.53;;;;;;;;;;4933009;28;20473;-64
2022/07/26 00:42:38;;;;;;;4.20;2.10;;;;;;;;;;4932296;28;20524;-63
2022/07/26 00:45:05;;;;;;;6.63;2.20;;;;;;;;;;4931862;28;20571;-62
2022/07/26 00:47:31;;;;;;;5.60;2.15;;;;;;;;;;4931999;28;20431;-64
2022/07/26 00:49:57;;;;;;;6.22;2.17;;;;;;;;;;4931742;28;20489;-62
2022/07/26 00:52:22;;;;;;;7.65;2.15;;;;;;;;;;4914221;28;20084;-64
2022/07/26 00:54:48;;;;;;;3.33;2.15;;;;;;;;;;4932922;28;20322;-62
2022/07/26 00:57:14;;;;;;;6.18;2.00;;;;;;;;;;4931565;28;20426;-63
2022/07/26 00:59:40;;;;;;;3.38;1.65;;;;;;;;;;4930580;28;20369;-63
2022/07/26 01:02:06;;;;;;;4.97;2.08;;;;;;;;;;4934785;28;21056;-63
2022/07/26 01:04:32;;;;;;;4.57;1.75;;;;;;;;;;4948302;28;20570;-64
2022/07/26 01:06:58;;;;;;;6.20;2.28;;;;;;;;;;4951009;28;20409;-63
2022/07/26 01:09:23;;;;;;;6.97;2.50;;;;;;;;;;4950812;28;20341;-63
2022/07/26 01:11:50;;;;;;;5.93;2.03;;;;;;;;;;4950835;28;20321;-65
2022/07/26 01:14:21;;;;;;;3.75;1.88;;;;;;;;;;4950809;28;20459;-64
2022/07/26 01:16:47;;;;;;;3.22;1.60;;;;;;;;;;4950654;28;20479;-67
2022/07/26 01:19:12;;;;;;;4.75;2.10;;;;;;;;;;4951395;28;20441;-62
2022/07/26 01:21:38;;;;;;;6.88;1.80;;;;;;;;;;4950657;28;20113;-63
2022/07/26 01:24:04;;;;;;;4.22;1.98;;;;;;;;;;4951079;28;20376;-63
2022/07/26 01:26:29;;;;;;;4.82;1.63;;;;;;;;;;4950716;28;20396;-62
2022/07/26 01:28:55;;;;;;;5.50;2.00;;;;;;;;;;4950653;28;20100;-63
2022/07/26 01:31:20;;;;;;;5.10;1.80;;;;;;;;;;4949801;28;20336;-63
2022/07/26 01:33:46;;;;;;;3.88;2.17;;;;;;;;;;4953308;28;20469;-64
2022/07/26 01:36:11;;;;;;;2.45;1.40;;;;;;;;;;4952511;28;20336;-62
2022/07/26 01:38:38;;;;;;;4.93;2.58;;;;;;;;;;4951862;28;20512;-63
2022/07/26 01:41:04;;;;;;;4.10;2.15;;;;;;;;;;4952997;28;20017;-63
2022/07/26 01:43:29;;;;;;;3.72;2.08;;;;;;;;;;4951501;28;20425;-62
2022/07/26 01:45:55;;;;;;;7.38;1.83;;;;;;;;;;4952287;28;20373;-64
2022/07/26 01:48:20;;;;;;;3.85;1.80;;;;;;;;;;4951407;28;20419;-62
2022/07/26 01:50:45;;;;;;;4.47;1.58;;;;;;;;;;4951993;28;20387;-63
2022/07/26 01:53:11;;;;;;;2.17;1.25;;;;;;;;;;4951808;28;20485;-63
2022/07/26 01:55:36;;;;;;;2.30;1.40;;;;;;;;;;4951875;28;20452;-62
2022/07/26 01:58:04;;;;;;;3.67;1.83;;;;;;;;;;4951827;28;20316;-63
2022/07/26 02:00:29;;;;;;;4.90;1.95;;;;;;;;;;4951359;28;20087;-62
2022/07/26 02:02:54;;;;;;;3.17;1.88;;;;;;;;;;4951524;28;20030;-63
2022/07/26 02:05:20;;;;;;;5.55;2.42;;;;;;;;;;4952803;28;20146;-66
2022/07/26 02:07:45;;;;;;;6.85;1.60;;;;;;;;;;4951227;28;20048;-62
2022/07/26 02:10:11;;;;;;;2.22;1.50;;;;;;;;;;4933947;28;20485;-63
2022/07/26 02:12:37;;;;;;;5.88;1.90;;;;;;;;;;4951344;28;20416;-62
2022/07/26 02:15:04;;;;;;;2.45;1.63;;;;;;;;;;4952148;28;20038;-62
2022/07/26 02:17:29;;;;;;;2.58;1.63;;;;;;;;;;4951415;28;20475;-64
2022/07/26 02:19:54;;;;;;;5.47;2.28;;;;;;;;;;4952051;28;20446;-62
2022/07/26 02:22:20;;;;;;;3.38;2.00;;;;;;;;;;4934120;28;20464;-63
2022/07/26 02:24:46;;;;;;;4.72;1.90;;;;;;;;;;4951202;28;20142;-65
2022/07/26 02:27:11;;;;;;;3.60;1.80;;;;;;;;;;4951003;28;20480;-64
2022/07/26 02:29:37;;;;;;;3.97;1.70;;;;;;;;;;4951554;28;20499;-63
2022/07/26 02:32:03;;;;;;;3.35;1.83;;;;;;;;;;4952701;28;20397;-63
2022/07/26 02:34:28;;;;;;;2.72;1.50;;;;;;;;;;4952397;28;20174;-63
2022/07/26 02:36:54;;;;;;;4.97;1.60;;;;;;;;;;4951242;28;20314;-63
2022/07/26 02:39:19;;;;;;;3.05;1.67;;;;;;;;;;4951322;28;20353;-62
2022/07/26 02:41:45;;;;;;;2.13;1.30;;;;;;;;;;4951798;28;20030;-64
2022/07/26 02:44:11;;;;;;;5.10;1.80;;;;;;;;;;4951649;28;20381;-64
2022/07/26 02:46:36;;;;;;;4.65;1.92;;;;;;;;;;4950743;28;20441;-62
2022/07/26 02:49:02;;;;;;;2.08;1.40;;;;;;;;;;4950585;28;20030;-62
2022/07/26 02:51:27;;;;;;;3.28;1.65;;;;;;;;;;4950429;28;20333;-63
2022/07/26 02:53:53;;;;;;;4.75;1.98;;;;;;;;;;4950584;28;20455;-63
2022/07/26 02:56:19;;;;;;;2.72;1.77;;;;;;;;;;4950717;28;20387;-63
2022/07/26 02:58:45;;;;;;;1.65;1.45;;;;;;;;;;4950639;28;20348;-62
2022/07/26 03:01:10;;;;;;;2.20;1.42;;;;;;;;;;4949824;28;20095;-63
2022/07/26 03:03:36;;;;;;;3.42;1.85;;;;;;;;;;4950749;28;20511;-63
2022/07/26 03:06:02;;;;;;;2.80;1.50;;;;;;;;;;4950549;28;20437;-63
2022/07/26 03:08:27;;;;;;;4.13;1.50;;;;;;;;;;4932950;28;20544;-63
2022/07/26 03:10:52;;;;;;;2.20;1.40;;;;;;;;;;4950597;28;20405;-63
2022/07/26 03:13:18;;;;;;;4.50;1.75;;;;;;;;;;4950024;28;20042;-62
2022/07/26 03:15:43;;;;;;;2.90;1.30;;;;;;;;;;4950102;28;20409;-63
2022/07/26 03:18:09;;;;;;;3.40;1.80;;;;;;;;;;4932785;28;20440;-62
2022/07/26 03:20:34;;;;;;;4.13;1.73;;;;;;;;;;4949792;28;20396;-62
2022/07/26 03:22:59;;;;;;;2.20;1.48;;;;;;;;;;4950618;28;20494;-62
2022/07/26 03:25:25;;;;;;;2.40;1.10;;;;;;;;;;4950425;28;20457;-63
2022/07/26 03:27:55;;;;;;;3.05;1.20;;;;;;;;;;4950550;28;20518;-62
2022/07/26 03:30:21;;;;;;;3.00;1.50;;;;;;;;;;4950436;28;20409;-63
2022/07/26 03:32:46;;;;;;;3.38;1.50;;;;;;;;;;4950829;28;20413;-62
2022/07/26 03:35:12;;;;;;;3.05;1.58;;;;;;;;;;4950947;28;20370;-66
2022/07/26 03:37:37;;;;;;;2.97;1.70;;;;;;;;;;4950658;28;20095;-63
2022/07/26 03:40:03;;;;;;;1.75;1.42;;;;;;;;;;4949857;28;20412;-63
2022/07/26 03:42:28;;;;;;;4.60;1.63;;;;;;;;;;4950117;28;20076;-63
2022/07/26 03:44:54;;;;;;;6.60;1.85;;;;;;;;;;4949973;28;20408;-63
2022/07/26 03:47:19;;;;;;;6.15;1.90;;;;;;;;;;4949737;28;20026;-63
2022/07/26 03:49:44;;;;;;;1.98;1.27;;;;;;;;;;4949804;28;20157;-62
2022/07/26 03:52:10;;;;;;;2.95;1.75;;;;;;;;;;4950661;28;20482;-62
2022/07/26 03:54:35;;;;;;;2.35;1.60;;;;;;;;;;4950670;28;20440;-63
2022/07/26 03:57:01;;;;;;;1.92;1.23;;;;;;;;;;4932274;28;20468;-63
2022/07/26 03:59:26;;;;;;;2.72;1.55;;;;;;;;;;4931774;28;20349;-63
2022/07/26 04:01:52;;;;;;;3.45;1.40;;;;;;;;;;4951600;28;20399;-63
2022/07/26 04:04:17;;;;;;;3.10;1.52;;;;;;;;;;4949814;28;20466;-62
2022/07/26 04:06:45;;;;;;;2.35;1.58;;;;;;;;;;4949660;28;20453;-62
2022/07/26 04:09:11;;;;;;;2.25;1.40;;;;;;;;;;4949645;28;20101;-63
2022/07/26 04:11:36;;;;;;;1.83;1.35;;;;;;;;;;4952577;28;20044;-62
2022/07/26 04:14:02;;;;;;;3.45;1.88;;;;;;;;;;4956019;28;20360;-62
2022/07/26 04:16:28;;;;;;;2.10;1.50;;;;;;;;;;4956084;28;20337;-62
2022/07/26 04:18:53;;;;;;;1.75;1.30;;;;;;;;;;4955894;28;20038;-63
2022/07/26 04:21:19;;;;;;;3.25;1.70;;;;;;;;;;4956261;28;20192;-62
2022/07/26 04:23:44;;;;;;;3.13;1.55;;;;;;;;;;4955434;28;20056;-63
2022/07/26 04:26:12;;;;;;;1.63;1.08;;;;;;;;;;4956341;28;20061;-62
2022/07/26 04:28:37;;;;;;;3.72;1.42;;;;;;;;;;4956003;28;20045;-62
2022/07/26 04:31:02;;;;;;;2.10;1.38;;;;;;;;;;4955703;28;20025;-63
2022/07/26 04:33:28;;;;;;;2.38;1.40;;;;;;;;;;4956152;28;20304;-62
2022/07/26 04:35:53;;;;;;;3.42;1.92;;;;;;;;;;4955422;28;20437;-63
2022/07/26 04:38:19;;;;;;;2.38;1.40;;;;;;;;;;4955602;28;20547;-63
2022/07/26 04:40:44;;;;;;;2.63;1.73;;;;;;;;;;4956129;28;20348;-62
2022/07/26 04:43:10;;;;;;;3.85;1.58;;;;;;;;;;4956535;28;20172;-62
2022/07/26 04:45:36;;;;;;;1.88;1.38;;;;;;;;;;4955379;28;20129;-63
2022/07/26 04:48:01;;;;;;;2.33;1.40;;;;;;;;;;4955829;28;20407;-63
2022/07/26 04:50:27;;;;;;;2.17;1.20;;;;;;;;;;4956000;28;20393;-63
2022/07/26 04:52:53;;;;;;;2.80;1.40;;;;;;;;;;4955828;28;20096;-62
2022/07/26 04:55:21;;;;;;;2.75;1.38;;;;;;;;;;4955993;28;20416;-62
2022/07/26 04:57:47;;;;;;;1.38;1.13;;;;;;;;;;4955916;28;20322;-63
2022/07/26 05:00:14;;;;;;;2.28;1.45;;;;;;;;;;4955726;28;20448;-64
2022/07/26 05:02:40;;;;;;;2.33;1.30;;;;;;;;;;4955533;28;20026;-63
2022/07/26 05:05:06;;;;;;;2.85;1.52;;;;;;;;;;4956054;28;20409;-62
2022/07/26 05:07:45;;;;;;;2.00;1.48;;;;;;;;;;4955471;28;20409;-63
2022/07/26 05:10:12;;;;;;;1.92;1.33;;;;;;;;;;4955584;28;20435;-63
2022/07/26 05:12:37;;;;;;;3.90;1.65;;;;;;;;;;4955134;28;20436;-63
2022/07/26 05:15:04;;;;;;;2.30;1.40;;;;;;;;;;4955661;28;20490;-65
2022/07/26 05:17:29;;;;;;;2.25;1.40;;;;;;;;;;4955831;28;20575;-63
2022/07/26 05:19:55;;;;;;;1.73;1.30;;;;;;;;;;4955315;28;20511;-63
2022/07/26 05:22:20;;;;;;;1.73;1.13;;;;;;;;;;4954423;28;20048;-63
2022/07/26 05:24:46;;;;;;;2.55;1.60;;;;;;;;;;4951889;28;20341;-63
2022/07/26 05:27:11;;;;;;;3.13;1.33;;;;;;;;;;4952293;28;20415;-63
2022/07/26 05:29:36;;;;;;;3.13;1.50;;;;;;;;;;4952360;28;20468;-62
2022/07/26 05:32:02;;;;;;;2.65;1.50;;;;;;;;;;4952177;28;20388;-62
2022/07/26 05:34:27;;;;;;;2.05;1.25;;;;;;;;;;4953727;28;20360;-62
2022/07/26 05:36:52;;;;;;;1.88;1.05;;;;;;;;;;4952721;28;20506;-63
2022/07/26 05:39:18;;;;;;;1.80;1.20;;;;;;;;;;4952179;28;20440;-62
2022/07/26 05:41:43;;;;;;;2.35;1.58;;;;;;;;;;4952221;28;20403;-63
2022/07/26 05:44:09;;;;;;;2.38;1.30;;;;;;;;;;4952239;28;20579;-65
2022/07/26 05:46:36;;;;;;;3.47;1.50;;;;;;;;;;4952650;28;20467;-63
2022/07/26 05:49:03;;;;;;;1.60;1.25;;;;;;;;;;4934502;28;20029;-63
2022/07/26 05:51:29;;;;;;;2.15;1.30;;;;;;;;;;4951943;28;20491;-63
2022/07/26 05:53:54;;;;;;;2.13;1.40;;;;;;;;;;4953103;28;20512;-63
2022/07/26 05:56:20;;;;;;;1.83;1.17;;;;;;;;;;4951928;28;20048;-62
2022/07/26 05:58:45;;;;;;;2.20;1.50;;;;;;;;;;4951848;28;20413;-62
2022/07/26 06:01:11;;;;;;;2.60;1.58;;;;;;;;;;4951593;28;20034;-63
2022/07/26 06:03:37;;;;;;;2.63;1.52;;;;;;;;;;4952290;28;20414;-63
2022/07/26 06:06:02;;;;;;;2.10;1.33;;;;;;;;;;4951830;28;20421;-64
2022/07/26 06:08:28;;;;;;;3.08;1.40;;;;;;;;;;4951511;28;20467;-63
2022/07/26 06:10:53;;;;;;;2.55;1.38;;;;;;;;;;4951216;28;20359;-62
2022/07/26 06:13:19;;;;;;;2.47;1.45;;;;;;;;;;4951720;28;20320;-63
2022/07/26 06:15:44;;;;;;;1.73;1.38;;;;;;;;;;4950888;28;20487;-63
2022/07/26 06:18:10;;;;;;;1.92;1.67;;;;;;;;;;4952568;28;20053;-62
2022/07/26 06:20:40;;;;;;;2.83;1.55;;;;;;;;;;4951332;28;20519;-63
2022/07/26 06:23:05;;;;;;;3.95;1.42;;;;;;;;;;4952394;28;20421;-62
2022/07/26 06:25:30;;;;;;;3.40;1.75;;;;;;;;;;4933596;28;20433;-62
2022/07/26 06:27:56;;;;;;;3.05;1.45;;;;;;;;;;4951098;28;20025;-63
2022/07/26 06:30:21;;;;;;;3.35;1.60;;;;;;;;;;4933391;28;20444;-63
2022/07/26 06:32:47;;;;;;;2.55;1.48;;;;;;;;;;4951618;28;20056;-63
2022/07/26 06:35:13;;;;;;;2.63;1.77;;;;;;;;;;4950800;28;20349;-64
2022/07/26 06:37:40;;;;;;;2.92;1.40;;;;;;;;;;4952646;28;20435;-63
2022/07/26 06:40:07;;;;;;;6.32;1.60;;;;;;;;;;4950953;28;20695;-62
2022/07/26 06:42:32;;;;;;;2.28;1.63;;;;;;;;;;4951236;28;20499;-63
2022/07/26 06:45:02;;;;;;;2.08;1.33;;;;;;;;;;4950749;28;20314;-62
2022/07/26 06:47:27;;;;;;;2.78;1.65;;;;;;;;;;4951054;28;20357;-62
2022/07/26 06:49:52;;;;;;;2.65;1.33;;;;;;;;;;4950411;28;20375;-63
2022/07/26 06:52:18;;;;;;;2.25;1.42;;;;;;;;;;4950342;28;20484;-63
2022/07/26 06:54:43;;;;;;;2.40;1.70;;;;;;;;;;4951302;28;20416;-63
2022/07/26 06:57:09;;;;;;;2.65;1.70;;;;;;;;;;4950796;28;20502;-64
2022/07/26 06:59:34;;;;;;;2.58;1.95;;;;;;;;;;4952026;28;20444;-63
2022/07/26 07:02:01;;;;;;;3.17;1.67;;;;;;;;;;4950592;28;20410;-65
2022/07/26 07:04:31;;;;;;;2.42;1.80;;;;;;;;;;4950772;28;20396;-64
2022/07/26 07:07:01;;;;;;;2.83;1.90;;;;;;;;;;4950275;28;20419;-63
2022/07/26 07:09:30;;;;;;;2.40;1.80;;;;;;;;;;4950775;28;20499;-63
2022/07/26 07:11:55;;;;;;;3.50;1.98;;;;;;;;;;4950379;28;20352;-63
2022/07/26 07:14:21;;;;;;;2.85;1.95;;;;;;;;;;4950122;28;20357;-64
2022/07/26 07:16:46;;;;;;;4.53;2.00;;;;;;;;;;4950136;28;20452;-62
2022/07/26 07:19:12;;;;;;;3.40;1.77;;;;;;;;;;4951365;28;20134;-63
2022/07/26 07:21:38;;;;;;;2.50;1.70;;;;;;;;;;4950145;28;20049;-63
2022/07/26 07:24:06;;;;;;;;;;;;;;;;;;4950414;28;20476;-63
2022/07/26 07:26:31;;;;;;;2.72;2.22;;;;;;;;;;4951084;28;20355;-63
2022/07/26 07:28:57;;;;;;;5.30;2.45;;;;;;;;;;4951272;28;20476;-63
2022/07/26 07:31:23;;;;;;;4.47;2.60;;;;;;;;;;4951500;28;20319;-63
2022/07/26 07:33:48;;;;;;;3.03;1.88;;;;;;;;;;4950124;28;20043;-64
2022/07/26 07:36:14;;;;;;;5.38;3.00;;;;;;;;;;4933054;28;20026;-63
2022/07/26 07:38:39;;;;;;;5.93;2.67;;;;;;;;;;4950113;28;20320;-63
2022/07/26 07:41:05;;;;;;;6.90;3.08;;;;;;;;;;4949739;28;20401;-64
2022/07/26 07:43:30;;;;;;;4.25;2.47;;;;;;;;;;4950096;28;20029;-63
2022/07/26 07:45:55;;;;;;;4.28;2.28;;;;;;;;;;4949464;28;20407;-62
2022/07/26 07:48:21;;;;;;;3.88;2.65;;;;;;;;;;4949795;28;20052;-63
2022/07/26 07:50:47;;;;;;;4.57;2.55;;;;;;;;;;4949972;28;20337;-62
2022/07/26 07:53:12;;;;;;;3.75;2.60;;;;;;;;;;4949767;28;20033;-63
2022/07/26 07:55:37;;;;;;;6.25;2.97;;;;;;;;;;4949595;28;20029;-63
2022/07/26 07:58:03;;;;;;;3.67;2.50;;;;;;;;;;4949362;28;20436;-63
2022/07/26 08:00:28;;;;;;;3.95;2.80;;;;;;;;;;4950413;28;20417;-63
2022/07/26 08:02:54;;;;;;;4.38;2.92;;;;;;;;;;4949675;28;20325;-63
2022/07/26 08:05:19;;;;;;;5.60;2.47;;;;;;;;;;4949768;28;20447;-62
2022/07/26 08:07:45;;;;;;;2.90;1.98;;;;;;;;;;4950750;28;20387;-64
2022/07/26 08:10:10;;;;;;;4.10;2.90;;;;;;;;;;4949526;28;20508;-62
2022/07/26 08:12:35;;;;;;;3.40;2.53;;;;;;;;;;4949519;28;20352;-62
2022/07/26 08:15:02;;;;;;;6.55;2.88;;;;;;;;;;4949747;28;20364;-65
2022/07/26 08:17:27;;;;;;;4.63;2.70;;;;;;;;;;4949593;28;20433;-63
2022/07/26 08:19:53;;;;;;;4.60;3.17;;;;;;;;;;4949588;28;20360;-63
2022/07/26 08:22:18;;;;;;;5.03;3.20;;;;;;;;;;4949322;28;20531;-63
2022/07/26 08:24:45;;;;;;;3.58;2.75;;;;;;;;;;4949472;28;20412;-63
2022/07/26 08:27:11;;;;;;;3.85;2.67;;;;;;;;;;4949466;28;20034;-63
2022/07/26 08:29:37;;;;;;;4.28;2.95;;;;;;;;;;4949296;28;20339;-63
2022/07/26 08:32:02;;;;;;;6.05;2.65;;;;;;;;;;4947650;28;20056;-63
2022/07/26 08:34:28;;;;;;;7.05;2.95;;;;;;;;;;4949874;28;20539;-63
2022/07/26 08:36:53;;;;;;;5.55;3.42;;;;;;;;;;4948195;28;20433;-62
2022/07/26 08:39:19;;;;;;;4.40;2.63;;;;;;;;;;4949515;28;20460;-64
2022/07/26 08:41:44;;;;;;;4.50;2.38;;;;;;;;;;4949451;28;20447;-63
2022/07/26 08:44:10;;;;;;;3.50;2.60;;;;;;;;;;4948683;28;20357;-63
2022/07/26 08:46:38;;;;;;;5.75;3.13;;;;;;;;;;4949515;28;20317;-62
2022/07/26 08:49:06;;;;;;;6.57;2.63;;;;;;;;;;4949579;28;20445;-63
2022/07/26 08:51:32;;;;;;;5.67;2.20;;;;;;;;;;4949533;28;20845;-62
2022/07/26 08:53:59;;;;;;;3.80;2.70;;;;;;;;;;4949052;28;20437;-62
2022/07/26 08:56:24;;;;;;;4.63;2.70;;;;;;;;;;4949188;28;20471;-62
2022/07/26 08:58:49;;;;;;;4.72;3.00;;;;;;;;;;4951180;28;20336;-62
2022/07/26 09:01:16;;;;;;;5.07;3.40;;;;;;;;;;4952953;28;20455;-63
2022/07/26 09:03:43;;;;;;;7.63;3.03;;;;;;;;;;4953549;28;20385;-63
2022/07/26 09:06:12;;;;;;;5.07;3.00;;;;;;;;;;4953060;28;20318;-63
2022/07/26 09:08:37;;;;;;;3.40;2.90;;;;;;;;;;4952420;28;20424;-63
2022/07/26 09:11:23;;;;;;;4.22;2.85;;;;;;;;;;4952376;28;20498;-63
2022/07/26 09:13:54;;;;;;;3.78;2.42;;;;;;;;;;4952484;28;20449;-62
2022/07/26 09:16:20;;;;;;;5.07;2.72;;;;;;;;;;4952422;28;20452;-63
2022/07/26 09:18:45;;;;;;;4.68;2.78;;;;;;;;;;4953607;28;20348;-63
2022/07/26 09:21:26;;;;;;;4.60;2.70;;;;;;;;;;4952206;28;20457;-63
2022/07/26 09:23:52;;;;;;;4.70;2.70;;;;;;;;;;4950666;28;20069;-64
2022/07/26 09:26:19;;;;;;;4.82;2.90;;;;;;;;;;4953949;28;20030;-63
2022/07/26 09:28:44;;;;;;;7.07;2.70;;;;;;;;;;4934500;28;20392;-63
2022/07/26 09:31:10;;;;;;;4.55;3.08;;;;;;;;;;4952330;28;20437;-63
2022/07/26 09:33:44;;;;;;;4.13;3.30;;;;;;;;;;4952394;28;20395;-62
2022/07/26 09:36:09;;;;;;;4.20;3.13;;;;;;;;;;4951805;28;20025;-62
2022/07/26 09:38:42;;;;;;;6.80;3.10;;;;;;;;;;4952407;28;20487;-63
2022/07/26 09:41:28;;;;;;;5.13;3.13;;;;;;;;;;4952302;28;20400;-63
2022/07/26 09:43:57;;;;;;;7.53;2.97;;;;;;;;;;4952103;28;20504;-63
2022/07/26 09:46:24;;;;;;;4.10;3.00;;;;;;;;;;4952162;28;20425;-63
2022/07/26 09:48:51;;;;;;;5.03;2.83;;;;;;;;;;4952008;28;20311;-63
2022/07/26 09:51:34;;;;;;;3.90;3.00;;;;;;;;;;4951895;28;20456;-63
2022/07/26 09:53:59;;;;;;;3.80;2.90;;;;;;;;;;4952399;28;20532;-63
2022/07/26 09:56:49;;;;;;;5.60;3.10;;;;;;;;;;4951517;28;20394;-63
2022/07/26 09:59:17;;;;;;;4.47;2.78;;;;;;;;;;4952297;28;20037;-63
2022/07/26 10:01:44;;;;;;;3.53;2.92;;;;;;;;;;4951604;28;20530;-63
2022/07/26 10:04:09;;;;;;;4.78;3.13;;;;;;;;;;4952499;28;20439;-63
2022/07/26 10:06:35;;;;;;;4.60;3.45;;;;;;;;;;4934074;28;20419;-63
2022/07/26 10:09:01;;;;;;;5.07;3.42;;;;;;;;;;4951318;28;20492;-63
2022/07/26 10:11:48;;;;;;;7.25;3.33;;;;;;;;;;4934108;28;20341;-63
2022/07/26 10:14:32;;;;;;;4.47;3.42;;;;;;;;;;4933987;28;20465;-64
2022/07/26 10:16:59;;;;;;;4.30;2.80;;;;;;;;;;4951998;28;20453;-62
2022/07/26 10:19:52;;;;;;;3.55;2.90;;;;;;;;;;4951353;28;20551;-62
2022/07/26 10:22:29;;;;;;;3.72;3.22;;;;;;;;;;4947284;28;20461;-62
2022/07/26 10:24:56;;;;;;;3.85;2.42;;;;;;;;;;4951387;28;20441;-63
2022/07/26 10:27:40;;;;;;;6.03;2.50;;;;;;;;;;4950684;28;20464;-62
2022/07/26 10:30:18;;;;;;;5.07;3.05;;;;;;;;;;4951179;28;20030;-63
2022/07/26 10:32:50;;;;;;;3.70;2.92;;;;;;;;;;4952248;28;20376;-62
2022/07/26 10:35:31;;;;;;;3.90;2.97;;;;;;;;;;4950744;28;20480;-63
2022/07/26 10:38:21;;;;;;;4.05;3.10;;;;;;;;;;4951413;28;20413;-63
2022/07/26 10:41:01;;;;;;;4.25;2.78;;;;;;;;;;4950784;28;20038;-63
2022/07/26 10:43:27;;;;;;;4.18;2.80;;;;;;;;;;4950747;28;20465;-63
2022/07/26 10:46:29;;;;;;;3.78;2.92;;;;;;;;;;4608621;28;10000811;-63
2022/07/26 10:49:02;;;;;;;4.22;3.22;;;;;;;;;;4950620;28;20089;-63
2022/07/26 10:51:31;;;;;;;4.47;3.13;;;;;;;;;;4951180;28;20494;-64
2022/07/26 10:54:23;;;;;;;3.90;2.80;;;;;;;;;;4933455;28;20448;-62
2022/07/26 10:56:49;;;;;;;3.90;3.00;;;;;;;;;;4946588;28;20515;-63
2022/07/26 10:59:30;;;;;;;4.40;3.00;;;;;;;;;;4950371;28;20437;-66
2022/07/26 11:01:55;;;;;;;5.70;2.80;;;;;;;;;;4951326;28;20053;-63
2022/07/26 11:04:21;;;;;;;4.35;2.70;;;;;;;;;;4933798;28;20033;-64
2022/07/26 11:06:47;;;;;;;3.25;2.60;;;;;;;;;;4950728;28;20437;-64
2022/07/26 11:09:12;;;;;;;3.80;2.80;;;;;;;;;;4950239;28;20447;-63
2022/07/26 11:11:38;;;;;;;3.97;3.10;;;;;;;;;;4950895;28;20449;-63
2022/07/26 11:14:04;;;;;;;4.47;2.92;;;;;;;;;;4950319;28;20439;-63
2022/07/26 11:16:38;;;;;;;3.20;2.50;;;;;;;;;;4950875;28;20336;-64
2022/07/26 11:19:22;;;;;;;3.47;2.90;;;;;;;;;;4950222;28;20475;-63
2022/07/26 11:21:57;;;;;;;4.25;2.55;;;;;;;;;;4949040;28;20464;-63
2022/07/26 11:24:23;;;;;;;3.72;2.90;;;;;;;;;;4950868;28;20488;-63
2022/07/26 11:26:49;;;;;;;3.65;3.00;;;;;;;;;;4951325;28;20456;-63
2022/07/26 11:29:14;;;;;;;2.97;2.55;;;;;;;;;;4950545;28;20108;-65
2022/07/26 11:31:42;;;;;;;3.95;2.90;;;;;;;;;;4950184;28;20565;-63
2022/07/26 11:34:15;;;;;;;3.22;2.53;;;;;;;;;;4950008;28;20330;-63
2022/07/26 11:36:44;;;;;;;5.60;2.83;;;;;;;;;;4950450;28;20452;-64
2022/07/26 11:39:15;;;;;;;3.22;2.67;;;;;;;;;;4950344;28;20034;-63
2022/07/26 11:41:43;;;;;;;3.17;2.28;;;;;;;;;;4949911;28;20512;-63
2022/07/26 11:44:20;;;;;;;4.10;2.80;;;;;;;;;;4950142;28;20476;-64
2022/07/26 11:46:46;;;;;;;3.40;2.47;;;;;;;;;;4949781;28;20400;-65
2022/07/26 11:49:23;;;;;;;4.25;2.70;;;;;;;;;;4950938;28;20117;-65
2022/07/26 11:51:55;;;;;;;3.42;2.50;;;;;;;;;;4949816;28;20402;-65
2022/07/26 11:54:45;;;;;;;3.17;2.58;;;;;;;;;;4950580;28;20526;-66
2022/07/26 11:57:11;;;;;;;4.53;2.50;;;;;;;;;;4949948;28;20136;-65
2022/07/26 11:59:37;;;;;;;3.58;2.63;;;;;;;;;;4949202;28;20080;-65
2022/07/26 12:02:04;;;;;;;3.78;2.35;;;;;;;;;;4932556;28;20445;-65
2022/07/26 12:04:36;;;;;;;2.53;2.22;;;;;;;;;;4950390;28;20419;-65
2022/07/26 12:07:09;;;;;;;3.25;2.60;;;;;;;;;;4949683;28;20052;-65
2022/07/26 12:09:39;;;;;;;4.57;2.45;;;;;;;;;;4950930;28;20022;-65
2022/07/26 12:12:11;;;;;;;3.38;2.20;;;;;;;;;;4950616;28;20060;-65
2022/07/26 12:14:37;;;;;;;3.08;2.60;;;;;;;;;;4932116;28;20511;-65
2022/07/26 12:17:14;;;;;;;3.00;2.20;;;;;;;;;;4932257;28;20369;-64
2022/07/26 12:19:40;;;;;;;5.05;2.55;;;;;;;;;;4949323;28;20482;-64
2022/07/26 12:22:14;;;;;;;3.58;2.88;;;;;;;;;;4949573;28;20452;-65
2022/07/26 12:24:41;;;;;;;3.30;2.15;;;;;;;;;;4949158;28;20461;-65
2022/07/26 12:27:11;;;;;;;2.72;2.03;;;;;;;;;;4949858;28;20429;-64
2022/07/26 12:29:41;;;;;;;3.45;2.42;;;;;;;;;;4949125;28;20460;-66
2022/07/26 12:32:12;;;;;;;3.40;2.20;;;;;;;;;;4950193;28;20077;-64
2022/07/26 12:34:39;;;;;;;2.78;2.20;;;;;;;;;;4953298;28;20532;-65
2022/07/26 12:37:07;;;;;;;3.70;2.47;;;;;;;;;;4953096;28;20480;-67
2022/07/26 12:39:33;;;;;;;3.20;2.40;;;;;;;;;;4953500;28;20333;-64
2022/07/26 12:41:58;;;;;;;3.03;2.22;;;;;;;;;;4953506;28;20650;-65
2022/07/26 12:44:23;;;;;;;2.50;2.05;;;;;;;;;;4953156;28;20159;-65
2022/07/26 12:46:49;;;;;;;3.22;2.38;;;;;;;;;;4954276;28;20439;-65
2022/07/26 12:49:14;;;;;;;2.63;1.92;;;;;;;;;;4952838;28;20022;-65
2022/07/26 12:51:40;;;;;;;2.85;2.13;;;;;;;;;;4953848;28;20360;-65
2022/07/26 12:54:05;;;;;;;2.50;2.03;;;;;;;;;;4954319;28;20443;-64
2022/07/26 12:56:31;;;;;;;3.85;2.67;;;;;;;;;;4953673;28;20452;-65
2022/07/26 12:59:00;;;;;;;2.83;2.22;;;;;;;;;;4952779;28;20397;-65
2022/07/26 13:01:27;;;;;;;3.10;2.10;;;;;;;;;;4953705;28;20049;-64
2022/07/26 13:03:54;;;;;;;3.88;2.38;;;;;;;;;;4952990;28;20133;-65
2022/07/26 13:06:20;;;;;;;3.35;2.50;;;;;;;;;;4953020;28;20433;-64
2022/07/26 13:08:45;;;;;;;2.70;1.92;;;;;;;;;;4953996;28;20436;-65
2022/07/26 13:11:11;;;;;;;3.22;2.13;;;;;;;;;;4953211;28;20029;-64
2022/07/26 13:13:36;;;;;;;4.20;2.50;;;;;;;;;;4954082;28;20456;-65
2022/07/26 13:16:01;;;;;;;4.18;2.30;;;;;;;;;;4952546;28;20361;-65
2022/07/26 13:18:27;;;;;;;2.83;2.10;;;;;;;;;;4952807;28;20451;-64
2022/07/26 13:20:52;;;;;;;3.35;2.20;;;;;;;;;;4952262;28;20549;-64
2022/07/26 13:23:17;;;;;;;2.83;2.20;;;;;;;;;;4952525;28;20524;-64
2022/07/26 13:25:43;;;;;;;6.95;2.42;;;;;;;;;;4952923;28;20441;-64
2022/07/26 13:28:08;;;;;;;2.50;1.85;;;;;;;;;;4952546;28;20455;-64
2022/07/26 13:30:38;;;;;;;2.40;1.77;;;;;;;;;;4952442;28;20030;-64
2022/07/26 13:33:03;;;;;;;2.70;2.00;;;;;;;;;;4952779;28;20465;-64
2022/07/26 13:35:29;;;;;;;2.70;2.00;;;;;;;;;;4934786;28;20568;-65
2022/07/26 13:37:54;;;;;;;2.80;1.73;;;;;;;;;;4953854;28;20340;-64
2022/07/26 13:40:19;;;;;;;2.47;2.03;;;;;;;;;;4934815;28;20441;-64
2022/07/26 13:42:48;;;;;;;2.00;1.80;;;;;;;;;;4951919;28;20413;-64
2022/07/26 13:45:14;;;;;;;3.03;2.30;;;;;;;;;;4951596;28;20433;-64
2022/07/26 13:47:39;;;;;;;2.90;1.80;;;;;;;;;;4952374;28;20448;-65
2022/07/26 13:50:05;;;;;;;2.67;1.90;;;;;;;;;;4952238;28;20445;-64
2022/07/26 13:52:30;;;;;;;2.30;1.80;;;;;;;;;;4952593;28;20104;-64
2022/07/26 13:54:56;;;;;;;5.38;2.05;;;;;;;;;;4952066;28;20392;-67
2022/07/26 13:57:21;;;;;;;2.97;1.88;;;;;;;;;;4952163;28;20480;-64
2022/07/26 13:59:46;;;;;;;3.50;2.28;;;;;;;;;;4951884;28;20467;-65
2022/07/26 14:02:12;;;;;;;2.80;1.90;;;;;;;;;;4951630;28;20421;-64
2022/07/26 14:04:37;;;;;;;2.33;2.00;;;;;;;;;;4934525;28;20411;-65
2022/07/26 14:07:03;;;;;;;2.30;2.05;;;;;;;;;;4951558;28;20458;-66
2022/07/26 14:09:28;;;;;;;3.35;2.20;;;;;;;;;;4952487;28;20451;-65
2022/07/26 14:11:53;;;;;;;2.42;1.98;;;;;;;;;;4951343;28;20487;-65
2022/07/26 14:14:19;;;;;;;4.13;1.98;;;;;;;;;;4951777;28;20437;-64
2022/07/26 14:16:44;;;;;;;3.35;2.00;;;;;;;;;;4952958;28;20051;-64
2022/07/26 14:19:10;;;;;;;3.78;2.20;;;;;;;;;;4951647;28;20511;-64
2022/07/26 14:21:35;;;;;;;2.78;1.90;;;;;;;;;;4951183;28;20097;-64
2022/07/26 14:24:01;;;;;;;2.28;1.92;;;;;;;;;;4951467;28;20455;-64
2022/07/26 14:26:27;;;;;;;2.83;2.17;;;;;;;;;;4952199;28;20437;-64
2022/07/26 14:28:53;;;;;;;3.22;2.45;;;;;;;;;;4951611;28;20033;-64
2022/07/26 14:31:19;;;;;;;2.75;1.90;;;;;;;;;;4951412;28;20429;-64
2022/07/26 14:33:44;;;;;;;2.33;1.60;;;;;;;;;;4951137;28;20507;-64
2022/07/26 14:36:12;;;;;;;2.63;1.98;;;;;;;;;;4951530;28;20340;-64
2022/07/26 14:38:41;;;;;;;3.50;2.10;;;;;;;;;;4934208;28;20417;-64
2022/07/26 14:41:07;;;;;;;3.63;1.40;;;;;;;;;;4933600;28;20492;-64
2022/07/26 14:43:32;;;;;;;3.25;2.10;;;;;;;;;;4951381;28;20037;-63